Time;durP1;ratioP1;P1;durP2;ratioP2;P2;SDS_P1;SDS_P2;PMS_P1;PMS_P2;Temp;Humidity;BMP_temperature;BMP_pressure;BME280_temperature;BME280_humidity;BME280_pressure;Samples;Min_cycle;Max_cycle;Signal;HPM_P1;HPM_P2
2022/07/10 00:02:57;;;;;;;13.95;6.08;;;;;;;19.36;87.80;99060.52;1731238;82;21177;-79
2022/07/10 00:05:52;;;;;;;13.72;5.87;;;;;;;19.32;88.17;99064.91;1732397;82;21213;-79
2022/07/10 00:08:38;;;;;;;14.30;6.37;;;;;;;19.28;88.53;99064.59;1733033;82;21212;-80
2022/07/10 00:11:38;;;;;;;14.05;6.45;;;;;;;19.25;89.07;99062.36;1731635;82;21209;-79
2022/07/10 00:14:42;;;;;;;9.20;7.25;;;;;;;19.23;89.63;99063.16;1732820;81;21185;-80
2022/07/10 00:17:49;;;;;;;17.05;6.78;;;;;;;19.23;90.08;99066.48;1731636;82;21228;-79
2022/07/10 00:20:55;;;;;;;15.20;6.40;;;;;;;19.21;90.32;99056.22;1732915;82;21782;-80
2022/07/10 00:24:01;;;;;;;15.32;6.67;;;;;;;19.20;90.35;99053.17;1732855;82;21217;-80
2022/07/10 00:27:07;;;;;;;14.98;6.70;;;;;;;19.21;90.42;99050.13;1731441;82;21292;-80
2022/07/10 00:30:15;;;;;;;14.00;6.17;;;;;;;19.21;90.59;99052.06;1757967;81;21264;-80
2022/07/10 00:33:20;;;;;;;12.95;6.17;;;;;;;19.21;90.66;99055.67;1769374;81;21157;-80
2022/07/10 00:36:27;;;;;;;13.13;6.37;;;;;;;19.23;90.66;99058.17;1769082;81;21453;-80
2022/07/10 00:39:32;;;;;;;16.97;6.55;;;;;;;19.25;90.74;99054.60;1769334;81;21185;-80
2022/07/10 00:42:39;;;;;;;12.10;6.75;;;;;;;19.24;90.98;99045.42;1768583;81;21831;-80
2022/07/10 00:45:45;;;;;;;10.28;6.20;;;;;;;19.23;91.12;99047.91;1769575;81;21201;-80
2022/07/10 00:48:51;;;;;;;17.87;6.60;;;;;;;19.24;91.31;99050.13;1769531;81;21209;-80
2022/07/10 00:51:59;;;;;;;8.98;6.47;;;;;;;19.26;91.48;99053.50;1768867;81;21237;-80
2022/07/10 00:55:05;;;;;;;8.18;5.87;;;;;;;19.27;91.74;99046.84;1768438;81;21776;-80
2022/07/10 00:58:07;;;;;;;17.07;6.85;;;;;;;19.28;91.94;99045.19;1767182;81;21225;-80
2022/07/10 01:00:59;;;;;;;8.83;6.25;;;;;;;19.30;92.16;99034.69;1768659;81;21177;-80
2022/07/10 01:04:04;;;;;;;13.15;6.53;;;;;;;19.32;92.32;99035.24;1768608;81;21404;-80
2022/07/10 01:07:11;;;;;;;12.07;7.20;;;;;;;19.35;92.51;99039.44;1768158;81;21217;-80
2022/07/10 01:10:17;;;;;;;12.63;6.72;;;;;;;19.39;92.76;99040.59;1768475;81;21166;-80
2022/07/10 01:13:22;;;;;;;13.50;7.35;;;;;;;19.41;92.82;99043.91;1758799;81;21186;-79
2022/07/10 01:16:27;;;;;;;12.20;6.90;;;;;;;19.44;92.80;99042.56;1768313;81;21197;-80
2022/07/10 01:19:34;;;;;;;12.03;6.70;;;;;;;19.44;92.77;99039.23;1768597;81;21740;-80
2022/07/10 01:22:42;;;;;;;11.83;7.25;;;;;;;19.47;92.68;99042.84;1769025;81;21213;-80
2022/07/10 01:25:48;;;;;;;13.90;6.55;;;;;;;19.49;92.60;99048.15;1768659;81;21193;-79
2022/07/10 01:29:00;;;;;;;16.97;7.53;;;;;;;19.50;92.51;99038.17;1766939;81;21273;-79
2022/07/10 01:32:07;;;;;;;12.78;6.60;;;;;;;19.53;92.29;99047.35;1767084;81;21193;-79
2022/07/10 01:35:14;;;;;;;15.20;6.30;;;;;;;19.57;92.01;99045.73;1754127;81;21205;-80
2022/07/10 01:38:20;;;;;;;12.53;6.03;;;;;;;19.63;91.92;99048.02;1731159;82;21192;-81
2022/07/10 01:41:25;;;;;;;12.80;5.97;;;;;;;19.64;92.19;99035.25;1735387;81;21193;-80
2022/07/10 01:44:31;;;;;;;12.47;6.33;;;;;;;19.63;92.15;99018.89;1762003;81;21181;-80
2022/07/10 01:47:37;;;;;;;10.60;6.28;;;;;;;19.59;91.58;99012.17;1766924;81;21521;-81
2022/07/10 01:50:42;;;;;;;16.12;6.50;;;;;;;19.58;91.17;99034.08;1768382;81;21169;-80
2022/07/10 01:53:48;;;;;;;9.13;5.50;;;;;;;19.58;91.19;99043.23;1768738;81;21178;-80
2022/07/10 01:56:54;;;;;;;7.90;5.50;;;;;;;19.55;91.37;99049.30;1768698;81;21165;-81
2022/07/10 01:59:59;;;;;;;10.93;5.97;;;;;;;19.47;91.75;99039.23;1768574;81;21640;-80
2022/07/10 02:06:29;;;;;;;17.80;6.20;;;;;;;19.42;91.97;99049.73;1757990;81;21182;-81
2022/07/10 02:09:35;;;;;;;14.20;6.58;;;;;;;19.44;92.07;99051.72;1757214;81;21605;-80
2022/07/10 02:12:41;;;;;;;10.32;6.17;;;;;;;19.45;92.46;99063.09;1758850;79;21220;-80
2022/07/10 02:15:49;;;;;;;14.85;5.80;;;;;;;19.51;92.41;99065.34;1744859;81;21764;-81
2022/07/10 02:18:56;;;;;;;14.53;5.60;;;;;;;19.62;92.12;99044.96;1742275;82;21231;-80
2022/07/10 02:22:02;;;;;;;8.98;5.37;;;;;;;19.70;91.22;99026.97;1763569;81;21188;-80
2022/07/10 02:25:08;;;;;;;9.35;4.92;;;;;;;19.80;90.49;99029.80;1763635;81;21758;-80
2022/07/10 02:28:16;;;;;;;9.88;6.10;;;;;;;19.93;89.61;99039.60;1763375;81;21798;-80
2022/07/10 02:31:21;;;;;;;11.75;5.17;;;;;;;20.09;88.66;99025.56;1763533;81;21180;-79
2022/07/10 02:34:28;;;;;;;10.98;5.87;;;;;;;20.27;87.54;99009.52;1763446;81;21235;-79
2022/07/10 02:37:33;;;;;;;16.15;6.08;;;;;;;20.45;86.51;99015.98;1774485;81;21168;-80
2022/07/10 02:40:38;;;;;;;13.58;5.83;;;;;;;20.54;85.42;99005.21;1774395;81;21168;-79
2022/07/10 02:43:44;;;;;;;14.83;5.45;;;;;;;20.59;85.09;99010.22;1773517;81;21184;-80
2022/07/10 02:46:50;;;;;;;20.97;5.55;;;;;;;20.72;84.86;99031.10;1742975;82;21675;-80
2022/07/10 02:49:56;;;;;;;9.03;5.58;;;;;;;20.99;84.60;99026.72;1747826;81;21193;-80
2022/07/10 02:53:04;;;;;;;9.98;5.17;;;;;;;21.36;82.95;99013.13;1767389;81;21182;-80
2022/07/10 02:56:09;;;;;;;13.75;5.92;;;;;;;21.72;80.89;99013.11;1767557;81;21771;-80
2022/07/10 02:59:18;;;;;;;9.85;5.10;;;;;;;21.98;79.01;99013.91;1766636;81;21197;-80
2022/07/10 03:02:24;;;;;;;14.73;5.10;;;;;;;22.18;77.52;99012.47;1769223;81;21162;-80
2022/07/10 03:05:30;;;;;;;12.73;5.20;;;;;;;22.24;76.70;99004.37;1768374;81;21273;-80
2022/07/10 03:08:36;;;;;;;10.93;5.50;;;;;;;22.29;75.91;99004.91;1769593;81;21225;-80
2022/07/10 03:11:35;;;;;;;10.68;5.58;;;;;;;22.38;75.01;99004.59;1769401;81;21190;-80
2022/07/10 03:14:41;;;;;;;10.50;5.03;;;;;;;22.40;74.20;98996.23;1779071;80;21208;-80
2022/07/10 03:17:48;;;;;;;8.63;5.10;;;;;;;22.31;74.07;99004.91;1782757;80;21193;-78
2022/07/10 03:20:48;;;;;;;10.63;5.20;;;;;;;22.16;74.57;99004.41;1782783;80;21196;-80
2022/07/10 03:23:42;;;;;;;14.78;5.37;;;;;;;21.98;75.29;99007.78;1783027;80;21189;-80
2022/07/10 03:26:46;;;;;;;10.65;5.25;;;;;;;21.82;75.98;99002.78;1783062;80;21736;-80
2022/07/10 03:29:53;;;;;;;8.28;5.65;;;;;;;21.66;76.88;98996.98;1781945;80;21246;-80
2022/07/10 03:33:00;;;;;;;9.40;5.85;;;;;;;21.48;77.90;98997.00;1762568;80;21287;-80
2022/07/10 03:36:06;;;;;;;11.18;5.83;;;;;;;21.33;78.94;99000.63;1745238;82;21279;-80
2022/07/10 03:39:13;;;;;;;16.67;5.85;;;;;;;21.26;79.83;99000.03;1746133;82;21168;-80
2022/07/10 03:42:20;;;;;;;8.60;5.12;;;;;;;21.19;80.48;99001.71;1747331;82;21822;-80
2022/07/10 03:45:26;;;;;;;11.53;5.08;;;;;;;21.21;80.79;99005.59;1773135;80;21164;-80
2022/07/10 03:48:33;;;;;;;9.68;5.08;;;;;;;21.35;80.86;99013.69;1781113;80;21255;-77
2022/07/10 03:51:39;;;;;;;10.00;5.97;;;;;;;21.54;80.62;99028.43;1780596;80;21236;-79
2022/07/10 03:54:45;;;;;;;13.50;5.15;;;;;;;21.75;79.59;99025.91;1781966;80;21224;-79
2022/07/10 03:57:54;;;;;;;13.60;5.50;;;;;;;22.01;78.64;99005.80;1782190;80;21783;-79
2022/07/10 04:01:02;;;;;;;19.20;6.05;;;;;;;22.27;77.47;99001.59;1781541;80;21760;-79
2022/07/10 04:04:07;;;;;;;11.53;5.67;;;;;;;22.41;77.25;98999.85;1762500;80;21185;-78
2022/07/10 04:07:12;;;;;;;10.55;6.70;;;;;;;22.41;76.50;98988.15;1783207;80;21287;-80
2022/07/10 04:10:20;;;;;;;12.73;6.65;;;;;;;22.41;76.41;98983.97;1778500;80;21251;-79
2022/07/10 04:13:26;;;;;;;11.88;6.30;;;;;;;22.40;76.50;98986.48;1753224;80;21180;-80
2022/07/10 04:16:33;;;;;;;12.40;7.20;;;;;;;22.33;77.05;98978.98;1783251;80;21416;-79
2022/07/10 04:19:39;;;;;;;23.95;7.12;;;;;;;22.28;77.04;98970.66;1782838;80;21200;-80
2022/07/10 04:22:38;;;;;;;13.55;6.10;;;;;;;22.22;77.28;98973.76;1782656;80;21201;-79
2022/07/10 04:25:45;;;;;;;12.82;6.47;;;;;;;22.25;76.70;98966.20;1780900;80;21216;-79
2022/07/10 04:28:53;;;;;;;13.65;6.22;;;;;;;22.40;76.38;98960.59;1773373;80;21227;-80
2022/07/10 04:31:59;;;;;;;10.50;6.28;;;;;;;22.55;74.26;98945.73;1776780;80;21791;-79
2022/07/10 04:35:05;;;;;;;15.95;7.10;;;;;;;22.61;73.81;98945.41;1782231;80;21224;-80
2022/07/10 04:38:11;;;;;;;17.87;7.65;;;;;;;22.66;73.39;98940.36;1782958;80;21224;-79
2022/07/10 04:41:17;;;;;;;17.25;7.75;;;;;;;22.81;72.18;98947.78;1781857;80;21615;-80
2022/07/10 04:44:24;;;;;;;18.32;8.58;;;;;;;23.07;71.79;98935.34;1776111;80;21233;-80
2022/07/10 04:47:30;;;;;;;29.52;8.58;;;;;;;23.38;70.46;98936.45;1781518;80;21788;-80
2022/07/10 04:50:35;;;;;;;17.80;8.10;;;;;;;23.61;68.45;98931.47;1777305;80;21180;-80
2022/07/10 04:53:41;;;;;;;19.87;7.80;;;;;;;23.71;68.03;98936.14;1775092;80;21701;-80
2022/07/10 04:56:47;;;;;;;18.32;8.60;;;;;;;23.75;66.69;98942.80;1751422;81;21811;-80
2022/07/10 04:59:53;;;;;;;16.65;7.45;;;;;;;23.75;67.37;98929.41;1731658;82;21200;-80
2022/07/10 05:03:00;;;;;;;21.42;7.58;;;;;;;23.74;67.89;98937.52;1727709;83;21419;-80
2022/07/10 05:06:05;;;;;;;28.70;7.50;;;;;;;23.72;67.05;98942.02;1727568;83;21249;-80
2022/07/10 05:09:12;;;;;;;18.75;7.50;;;;;;;23.70;67.54;98935.88;1727247;83;21193;-79
2022/07/10 05:12:18;;;;;;;19.48;5.90;;;;;;;23.67;67.71;98942.91;1725174;83;21414;-79
2022/07/10 05:15:18;;;;;;;10.40;6.17;;;;;;;23.52;68.62;98945.80;1705330;83;21221;-79
2022/07/10 05:18:23;;;;;;;25.27;5.80;;;;;;;23.40;69.60;98949.56;1674694;85;21208;-79
2022/07/10 05:21:29;;;;;;;17.52;6.33;;;;;;;23.32;69.82;98958.55;1738358;82;21201;-79
2022/07/10 05:24:35;;;;;;;14.60;6.05;;;;;;;23.34;69.69;98971.67;1738885;82;21193;-79
2022/07/10 05:27:41;;;;;;;17.55;5.90;;;;;;;23.56;69.83;98948.27;1737493;82;21240;-80
2022/07/10 05:30:51;;;;;;;17.00;5.95;;;;;;;23.82;68.68;98943.86;1743016;81;21235;-81
2022/07/10 05:33:56;;;;;;;10.03;4.83;;;;;;;24.04;68.28;98939.95;1742908;82;21197;-81
2022/07/10 05:37:08;;;;;;;20.80;5.87;;;;;;;24.25;67.92;98936.91;1744265;82;21203;-79
2022/07/10 05:40:16;;;;;;;11.18;5.87;;;;;;;24.41;66.93;98935.02;1746925;82;21199;-81
2022/07/10 05:43:24;;;;;;;13.83;5.05;;;;;;;24.55;67.02;98930.92;1751922;82;21192;-79
2022/07/10 05:46:31;;;;;;;14.70;5.62;;;;;;;24.66;65.71;98931.05;1712255;82;21240;-79
2022/07/10 05:49:36;;;;;;;17.57;6.15;;;;;;;24.67;64.46;98948.09;1749157;82;21659;-79
2022/07/10 05:52:42;;;;;;;11.88;5.00;;;;;;;24.78;64.54;98942.34;1745223;80;21267;-79
2022/07/10 05:55:48;;;;;;;14.55;5.60;;;;;;;24.87;64.00;98936.33;1732606;82;21199;-79
2022/07/10 05:58:55;;;;;;;12.13;5.62;;;;;;;24.96;64.62;98937.30;1711320;81;21233;-79
2022/07/10 06:02:01;;;;;;;15.72;5.37;;;;;;;25.10;64.43;98938.22;1723538;81;21244;-79
2022/07/10 06:05:07;;;;;;;13.95;5.90;;;;;;;25.29;64.79;98931.75;1736328;80;22297;-78
2022/07/10 06:08:13;;;;;;;11.22;5.33;;;;;;;25.57;63.39;98935.45;1737048;81;21268;-79
2022/07/10 06:11:20;;;;;;;14.47;5.83;;;;;;;25.74;61.81;98919.71;1736091;80;21299;-79
2022/07/10 06:14:24;;;;;;;24.27;5.85;;;;;;;25.84;61.66;98902.48;1734976;81;21767;-79
2022/07/10 06:17:30;;;;;;;13.32;5.62;;;;;;;25.92;61.93;98890.53;1733151;81;21184;-79
2022/07/10 06:20:38;;;;;;;16.85;6.12;;;;;;;25.97;61.18;98894.62;1745186;82;21240;-79
2022/07/10 06:23:44;;;;;;;16.50;6.03;;;;;;;25.95;60.04;98889.91;1729597;80;21203;-79
2022/07/10 06:26:52;;;;;;;13.03;6.20;;;;;;;25.95;60.64;98891.31;1733681;82;21185;-79
2022/07/10 06:29:58;;;;;;;17.12;6.45;;;;;;;26.03;60.29;98882.77;1740282;81;21208;-79
2022/07/10 06:33:04;;;;;;;24.12;6.00;;;;;;;26.14;60.69;98880.81;1756034;81;21233;-79
2022/07/10 06:36:12;;;;;;;19.37;6.78;;;;;;;26.29;59.78;98878.81;1720031;81;21223;-79
2022/07/10 06:39:19;;;;;;;17.75;6.30;;;;;;;26.39;57.85;98877.18;1742566;81;22072;-79
2022/07/10 06:42:25;;;;;;;17.05;6.12;;;;;;;26.45;56.51;98882.98;1740950;82;21218;-80
2022/07/10 06:45:33;;;;;;;16.42;5.92;;;;;;;26.47;55.66;98891.89;1746296;81;21191;-79
2022/07/10 06:48:40;;;;;;;22.87;6.15;;;;;;;26.57;55.87;98893.05;1738246;81;21172;-79
2022/07/10 06:51:45;;;;;;;24.95;6.50;;;;;;;26.64;55.16;98913.09;1717311;83;21295;-78
2022/07/10 06:54:51;;;;;;;21.90;6.30;;;;;;;26.59;54.36;98910.98;1734268;81;21792;-80
2022/07/10 06:57:57;;;;;;;17.95;6.33;;;;;;;26.54;55.19;98913.88;1736120;82;21235;-79
2022/07/10 07:01:02;;;;;;;17.48;5.97;;;;;;;26.49;54.82;98919.88;1738677;82;21315;-79
2022/07/10 07:04:08;;;;;;;21.25;6.12;;;;;;;26.42;52.29;98932.63;1740857;81;21481;-79
2022/07/10 07:07:14;;;;;;;17.82;6.95;;;;;;;26.32;53.07;98935.66;1721256;82;21251;-79
2022/07/10 07:10:21;;;;;;;20.00;6.50;;;;;;;26.28;54.31;98933.22;1712076;82;21212;-79
2022/07/10 07:13:27;;;;;;;19.75;6.20;;;;;;;26.27;54.61;98929.59;1722937;82;21208;-79
2022/07/10 07:16:44;;;;;;;14.87;5.90;;;;;;;26.25;54.16;98928.51;1739531;82;21843;-80
2022/07/10 07:23:11;;;;;;;9.30;5.22;;;;;;;26.30;54.69;98975.22;1737823;81;21189;-79
2022/07/10 07:26:18;;;;;;;10.03;5.15;;;;;;;26.40;54.65;98994.61;1740587;81;21189;-79
2022/07/10 07:29:25;;;;;;;10.50;5.30;;;;;;;26.55;54.30;99003.30;1734008;81;21279;-80
2022/07/10 07:32:30;;;;;;;11.33;4.75;;;;;;;26.73;55.22;98998.12;1740268;81;21180;-80
2022/07/10 07:35:37;;;;;;;8.75;4.80;;;;;;;27.13;55.33;98991.33;1729521;82;21197;-80
2022/07/10 07:38:43;;;;;;;13.50;4.90;;;;;;;27.55;51.70;98984.95;1737023;81;21300;-80
2022/07/10 07:41:50;;;;;;;15.03;4.78;;;;;;;27.78;51.90;98986.37;1738325;80;21323;-80
2022/07/10 07:44:57;;;;;;;13.22;4.15;;;;;;;27.97;48.56;98993.98;1721701;81;21284;-79
2022/07/10 07:48:07;;;;;;;5.30;3.80;;;;;;;28.07;47.31;98988.66;1739874;80;21224;-80
2022/07/10 07:51:13;;;;;;;;;;;;;;;28.15;47.25;98985.88;1738964;81;21215;-79
2022/07/10 07:54:19;;;;;;;12.13;4.62;;;;;;;28.30;46.31;98973.95;1725097;82;20218;-79
2022/07/10 07:57:25;;;;;;;9.60;4.28;;;;;;;28.45;45.65;98955.23;1712537;82;21265;-80
2022/07/10 08:00:34;;;;;;;12.37;4.95;;;;;;;28.68;45.09;98973.64;1723069;82;21506;-80
2022/07/10 08:03:41;;;;;;;14.93;4.92;;;;;;;28.92;44.56;98965.31;1743392;82;21177;-80
2022/07/10 08:06:51;;;;;;;14.47;4.28;;;;;;;29.24;44.19;98962.03;1717466;82;21176;-80
2022/07/10 08:09:56;;;;;;;12.58;4.22;;;;;;;29.49;43.68;98952.47;1713472;83;21220;-80
2022/07/10 08:13:03;;;;;;;9.40;4.60;;;;;;;29.54;43.41;98937.65;1727543;80;21252;-80
2022/07/10 08:16:09;;;;;;;7.80;4.55;;;;;;;29.39;43.98;98924.66;1743322;80;21256;-80
2022/07/10 08:19:14;;;;;;;19.10;4.70;;;;;;;29.24;44.25;98902.91;1742636;82;21773;-80
2022/07/10 08:22:19;;;;;;;11.60;5.10;;;;;;;29.15;44.58;98901.27;1729350;81;21192;-80
2022/07/10 08:25:26;;;;;;;16.00;4.22;;;;;;;29.02;44.89;98891.83;1737043;82;21260;-79
2022/07/10 08:28:32;;;;;;;8.85;4.78;;;;;;;29.01;43.93;98885.97;1742984;80;21319;-80
2022/07/10 08:31:39;;;;;;;10.82;4.40;;;;;;;29.01;44.87;98877.52;1744315;82;21248;-80
2022/07/10 08:34:47;;;;;;;11.65;5.35;;;;;;;29.09;44.66;98876.69;1733931;82;21233;-79
2022/07/10 08:37:55;;;;;;;20.60;5.30;;;;;;;29.14;43.60;98884.96;1727346;82;21835;-79
2022/07/10 08:41:02;;;;;;;14.60;5.42;;;;;;;29.14;43.60;98884.96;1724422;80;21578;-80
2022/07/10 08:44:08;;;;;;;13.75;4.80;;;;;;;29.04;44.01;98878.27;1727920;82;21205;-80
2022/07/10 08:47:14;;;;;;;12.65;4.97;;;;;;;28.94;44.78;98878.59;1745855;82;21208;-79
2022/07/10 08:50:25;;;;;;;9.90;4.35;;;;;;;28.94;44.92;98876.59;1735328;82;21197;-80
2022/07/10 08:53:38;;;;;;;7.42;4.12;;;;;;;28.97;45.03;98880.75;1727528;81;21196;-80
2022/07/10 08:56:45;;;;;;;9.95;4.55;;;;;;;29.00;45.47;98875.30;1744358;82;21196;-80
2022/07/10 08:59:50;;;;;;;8.48;4.67;;;;;;;29.03;45.09;98865.37;1726922;80;21224;-80
2022/07/10 09:03:00;;;;;;;11.40;4.80;;;;;;;29.08;44.85;98869.41;1745933;82;21201;-80
2022/07/10 09:06:07;;;;;;;;;;;;;;;29.15;43.74;98864.09;1744909;82;21188;-80
2022/07/10 09:09:14;;;;;;;5.40;3.90;;;;;;;29.20;43.28;98876.58;1741767;82;20261;-79
2022/07/10 09:12:21;;;;;;;12.78;4.67;;;;;;;29.10;43.74;98864.84;1733235;82;21199;-80
2022/07/10 09:15:29;;;;;;;14.93;4.67;;;;;;;29.05;44.16;98858.81;1740683;82;21245;-80
2022/07/10 09:18:36;;;;;;;13.40;4.35;;;;;;;29.03;44.27;98872.41;1743050;82;21623;-80
2022/07/10 09:21:42;;;;;;;12.98;5.15;;;;;;;29.01;44.49;98878.93;1745010;82;21185;-79
2022/07/10 09:24:54;;;;;;;11.00;4.55;;;;;;;28.99;43.79;98875.63;1743145;81;21205;-80
2022/07/10 09:28:05;;;;;;;10.05;4.70;;;;;;;28.98;43.81;98874.81;1733732;82;21897;-80
2022/07/10 09:31:09;;;;;;;15.55;4.35;;;;;;;28.96;44.16;98879.10;1734851;82;22515;-79
2022/07/10 09:34:16;;;;;;;10.53;4.92;;;;;;;28.99;44.32;98877.05;1720122;82;21967;-80
2022/07/10 09:37:37;;;;;;;7.83;4.40;;;;;;;28.97;44.63;98887.78;1717454;82;21259;-80
2022/07/10 09:40:43;;;;;;;11.15;4.75;;;;;;;28.91;44.98;98882.88;1743045;81;21354;-80
2022/07/10 09:43:59;;;;;;;16.93;5.22;;;;;;;28.94;44.86;98887.03;1746222;80;21620;-80
2022/07/10 09:47:04;;;;;;;13.45;4.72;;;;;;;28.92;44.24;98887.92;1742472;80;21495;-80
2022/07/10 09:50:09;;;;;;;14.63;5.12;;;;;;;28.96;44.10;98884.15;1720050;80;21196;-80
2022/07/10 09:53:17;;;;;;;14.33;5.20;;;;;;;29.01;44.28;98884.55;1781072;80;21188;-80
2022/07/10 09:56:23;;;;;;;11.18;4.90;;;;;;;29.13;43.94;98903.02;1779993;80;21487;-80
2022/07/10 09:59:31;;;;;;;12.47;4.80;;;;;;;29.15;43.15;98900.69;1777034;80;21230;-80
2022/07/10 10:02:37;;;;;;;15.18;5.33;;;;;;;29.20;43.69;98892.06;1778045;80;21202;-80
2022/07/10 10:05:57;;;;;;;7.22;4.53;;;;;;;29.31;43.42;98892.53;1763846;80;21188;-80
2022/07/10 10:09:22;;;;;;;13.65;5.58;;;;;;;29.44;43.44;98880.83;1741332;82;21244;-80
2022/07/10 10:12:45;;;;;;;12.03;5.22;;;;;;;29.67;42.00;98885.09;1745607;82;21247;-80
2022/07/10 10:15:51;;;;;;;12.78;5.67;;;;;;;29.83;42.15;98878.33;1744947;82;21232;-80
2022/07/10 10:22:22;;;;;;;11.55;5.65;;;;;;;30.19;41.90;98882.63;1745765;82;21189;-80
2022/07/10 10:25:32;;;;;;;14.13;5.70;;;;;;;30.42;41.61;98894.43;1745173;82;21776;-78
2022/07/10 10:28:32;;;;;;;14.13;5.70;;;;;;;30.62;40.17;98887.14;1750718;82;21220;-80
2022/07/10 10:31:38;;;;;;;11.75;5.53;;;;;;;30.78;39.80;98887.63;1737907;82;21260;-80
2022/07/10 10:34:58;;;;;;;15.78;6.20;;;;;;;30.83;38.98;98882.95;1709766;84;21835;-80
2022/07/10 10:38:03;;;;;;;;;;;;;;;30.74;38.68;98879.61;1746581;80;21744;-79
2022/07/10 10:41:35;;;;;;;11.53;5.92;;;;;;;30.60;38.79;98872.56;1721807;80;20233;-79
2022/07/10 10:44:40;;;;;;;14.43;7.08;;;;;;;30.44;39.28;98869.52;1746212;80;21216;-80
2022/07/10 10:48:13;;;;;;;15.58;6.10;;;;;;;30.30;39.17;98868.36;1747683;81;21244;-80
2022/07/10 10:51:23;;;;;;;13.90;6.30;;;;;;;30.17;39.50;98866.06;1734792;82;21208;-80
2022/07/10 10:54:28;;;;;;;17.57;7.87;;;;;;;30.06;39.65;98860.52;1745598;80;21237;-79
2022/07/10 10:57:47;;;;;;;13.38;7.58;;;;;;;30.03;39.74;98869.09;1738732;80;21212;-80
2022/07/10 11:00:57;;;;;;;18.30;6.50;;;;;;;30.04;40.09;98869.33;1745181;82;21497;-81
2022/07/10 11:04:22;;;;;;;15.88;5.80;;;;;;;30.19;40.29;98869.35;1744254;82;21434;-80
2022/07/10 11:08:04;;;;;;;13.88;5.67;;;;;;;30.39;40.05;98873.36;1745962;82;21196;-80
2022/07/10 11:11:11;;;;;;;18.73;5.70;;;;;;;30.62;39.75;98855.52;1745678;82;21213;-80
2022/07/10 11:14:19;;;;;;;10.65;5.37;;;;;;;30.82;37.38;98864.34;1742769;81;21197;-80
2022/07/10 11:17:27;;;;;;;16.35;5.50;;;;;;;30.84;38.28;98865.66;1740628;81;21223;-79
2022/07/10 11:20:31;;;;;;;10.20;4.75;;;;;;;30.83;37.98;98865.43;1730794;81;21655;-80
2022/07/10 11:24:02;;;;;;;16.17;6.03;;;;;;;30.72;37.29;98870.65;1745974;82;21201;-80
2022/07/10 11:27:46;;;;;;;16.67;5.72;;;;;;;30.53;38.37;98871.09;1713754;83;21224;-80
2022/07/10 11:31:02;;;;;;;15.75;6.12;;;;;;;30.47;39.52;98850.50;1765518;81;21344;-80
2022/07/10 11:34:08;;;;;;;16.15;5.97;;;;;;;30.57;39.77;98867.02;1771310;81;21233;-80
2022/07/10 11:37:28;;;;;;;22.50;6.33;;;;;;;30.63;38.16;98867.06;1769106;81;21244;-80
2022/07/10 11:40:31;;;;;;;11.48;6.08;;;;;;;30.52;37.85;98874.27;1761110;81;21208;-80
2022/07/10 11:43:38;;;;;;;19.12;6.15;;;;;;;30.40;38.47;98888.31;1688261;82;21263;-80
2022/07/10 11:46:46;;;;;;;16.95;6.08;;;;;;;30.28;38.80;98870.12;1733331;81;21795;-80
2022/07/10 11:49:54;;;;;;;24.18;7.85;;;;;;;30.13;38.35;98855.22;1725572;82;21287;-80
2022/07/10 11:53:00;;;;;;;13.83;7.08;;;;;;;30.03;38.59;98859.23;1697026;83;21273;-80
2022/07/10 11:56:06;;;;;;;17.52;7.05;;;;;;;30.06;38.09;98852.06;1720224;82;21200;-79
2022/07/10 11:59:13;;;;;;;17.67;7.60;;;;;;;30.09;37.67;98859.85;1742718;82;21275;-79
2022/07/10 12:02:18;;;;;;;23.02;7.60;;;;;;;30.09;37.61;98844.94;1741668;81;21223;-79
2022/07/10 12:05:44;;;;;;;15.90;7.22;;;;;;;30.07;38.17;98835.41;1736358;81;21220;-79
2022/07/10 12:08:54;;;;;;;14.75;7.40;;;;;;;30.10;38.21;98845.98;1714364;83;21378;-79
2022/07/10 12:12:12;;;;;;;16.00;7.50;;;;;;;30.11;38.11;98839.17;1712521;83;21200;-79
2022/07/10 12:15:22;;;;;;;25.72;8.50;;;;;;;30.09;38.21;98857.03;1731692;80;21239;-79
2022/07/10 12:18:32;;;;;;;18.45;8.45;;;;;;;29.96;38.99;98845.41;1736468;81;21181;-79
2022/07/10 12:21:38;;;;;;;21.30;9.00;;;;;;;29.84;39.05;98838.28;1739530;81;21180;-79
2022/07/10 12:24:43;;;;;;;17.60;7.80;;;;;;;29.79;40.17;98835.90;1731559;82;21227;-79
2022/07/10 12:27:50;;;;;;;22.55;8.10;;;;;;;29.72;40.39;98836.17;1712054;83;21248;-79
2022/07/10 12:30:56;;;;;;;14.38;7.97;;;;;;;29.61;40.55;98831.51;1740887;82;21368;-79
2022/07/10 12:34:04;;;;;;;15.20;7.25;;;;;;;29.58;40.77;98836.98;1742579;82;21220;-79
2022/07/10 12:37:17;;;;;;;13.60;7.30;;;;;;;29.58;40.32;98841.21;1742520;82;21220;-79
2022/07/10 12:40:41;;;;;;;15.20;7.35;;;;;;;29.59;40.71;98841.45;1742918;82;21201;-79
2022/07/10 12:43:49;;;;;;;15.45;6.17;;;;;;;29.63;41.16;98823.53;1744531;82;21235;-79
2022/07/10 12:47:00;;;;;;;24.60;7.58;;;;;;;29.72;41.96;98820.09;1734540;82;21232;-79
2022/07/10 12:50:12;;;;;;;15.50;6.97;;;;;;;29.79;41.66;98818.99;1746966;82;21365;-79
2022/07/10 12:53:18;;;;;;;14.60;6.80;;;;;;;29.82;41.61;98816.65;1751549;82;21248;-79
2022/07/10 12:56:44;;;;;;;12.50;7.08;;;;;;;29.83;41.48;98815.48;1747642;82;21346;-79
2022/07/10 12:59:49;;;;;;;22.48;6.75;;;;;;;29.86;40.45;98814.80;1752296;81;21830;-79
2022/07/10 13:02:56;;;;;;;13.48;6.28;;;;;;;29.89;40.81;98816.95;1755385;81;21209;-79
2022/07/10 13:06:01;;;;;;;20.75;7.25;;;;;;;29.95;41.16;98826.27;1754861;81;21230;-79
2022/07/10 13:09:07;;;;;;;19.52;7.05;;;;;;;30.00;40.99;98825.25;1755560;81;21174;-79
2022/07/10 13:12:13;;;;;;;10.70;6.72;;;;;;;30.04;40.88;98807.90;1753802;81;21214;-79
2022/07/10 13:15:21;;;;;;;22.80;7.87;;;;;;;30.04;41.02;98798.03;1745363;80;21317;-79
2022/07/10 13:18:30;;;;;;;18.32;7.20;;;;;;;30.00;40.80;98792.83;1736826;80;21216;-79
2022/07/10 13:21:36;;;;;;;18.60;8.03;;;;;;;30.00;40.75;98785.78;1717850;80;21645;-79
2022/07/10 13:24:42;;;;;;;19.65;7.97;;;;;;;30.00;41.02;98787.19;1725262;80;21236;-79
2022/07/10 13:27:47;;;;;;;17.60;8.28;;;;;;;30.00;41.39;98787.19;1737386;80;21205;-79
2022/07/10 13:30:54;;;;;;;23.75;8.68;;;;;;;30.04;41.20;98792.39;1746122;81;21198;-79
2022/07/10 13:33:59;;;;;;;23.95;7.80;;;;;;;30.03;41.26;98797.20;1731944;82;21208;-79
2022/07/10 13:37:05;;;;;;;20.85;7.85;;;;;;;30.02;41.53;98787.11;1716590;83;21276;-79
2022/07/10 13:40:13;;;;;;;15.40;8.35;;;;;;;30.10;40.99;98793.83;1717690;83;21287;-79
2022/07/10 13:43:26;;;;;;;21.45;9.15;;;;;;;30.11;40.72;98792.66;1718027;83;21208;-79
2022/07/10 13:46:29;;;;;;;22.42;9.73;;;;;;;30.00;41.08;98806.92;1743961;82;21213;-79
2022/07/10 13:49:35;;;;;;;19.65;9.10;;;;;;;29.78;41.29;98808.89;1747486;82;21196;-79
2022/07/10 13:52:40;;;;;;;24.47;10.15;;;;;;;29.60;41.50;98805.92;1747344;82;21185;-79
2022/07/10 13:55:47;;;;;;;14.75;8.70;;;;;;;29.46;41.35;98807.52;1748045;82;21236;-79
2022/07/10 13:58:45;;;;;;;;;;;;;;;29.34;41.07;98811.61;1749386;81;21224;-79
2022/07/10 14:01:52;;;;;;;23.00;10.38;;;;;;;29.23;41.29;98813.16;1713549;83;20227;-79
2022/07/10 14:04:58;;;;;;;20.37;10.35;;;;;;;29.14;41.74;98814.58;1716996;83;21268;-79
2022/07/10 14:08:03;;;;;;;19.00;10.03;;;;;;;29.15;41.10;98819.05;1746390;82;21570;-79
2022/07/10 14:11:11;;;;;;;19.62;9.05;;;;;;;29.15;41.10;98819.05;1746565;82;21754;-79
2022/07/10 14:14:17;;;;;;;27.15;11.55;;;;;;;29.14;40.42;98820.80;1746332;82;21232;-79
2022/07/10 14:17:23;;;;;;;18.23;9.83;;;;;;;29.12;40.99;98816.89;1746818;82;22323;-79
2022/07/10 14:21:02;;;;;;;26.10;10.82;;;;;;;29.06;40.68;98809.80;1746834;82;21759;-79
2022/07/10 14:23:37;;;;;;;18.57;10.90;;;;;;;28.99;40.92;98808.91;1717790;83;21188;-79
2022/07/10 14:26:44;;;;;;;25.57;11.48;;;;;;;28.99;40.95;98819.34;1724081;81;21215;-80
2022/07/10 14:29:50;;;;;;;29.55;12.30;;;;;;;28.95;41.20;98813.55;1736408;80;21252;-79
2022/07/10 14:32:56;;;;;;;28.12;13.03;;;;;;;28.82;42.20;98803.27;1750005;82;21985;-79
2022/07/10 14:36:01;;;;;;;25.75;10.98;;;;;;;28.82;42.20;98803.27;1746198;82;21165;-79
2022/07/10 14:39:00;;;;;;;22.75;11.78;;;;;;;28.76;42.61;98816.70;1748791;82;21346;-79
2022/07/10 14:41:54;;;;;;;21.90;11.55;;;;;;;28.65;42.95;98799.06;1746436;82;21192;-79
2022/07/10 14:44:40;;;;;;;32.33;12.45;;;;;;;28.55;43.25;98803.05;1749111;80;21307;-79